sensor_id;sensor_type;location;lat;lon;timestamp;temperature;humidity
4584;DHT22;2304;47.606;12.186;2023-12-28T00:02:47;4.40;63.00
4584;DHT22;2304;47.606;12.186;2023-12-28T00:07:50;4.40;63.00
4584;DHT22;2304;47.606;12.186;2023-12-28T00:12:58;4.40;62.40
4584;DHT22;2304;47.606;12.186;2023-12-28T00:17:59;4.30;62.50
4584;DHT22;2304;47.606;12.186;2023-12-28T00:23:03;4.30;63.10
4584;DHT22;2304;47.606;12.186;2023-12-28T00:28:06;4.30;63.50
4584;DHT22;2304;47.606;12.186;2023-12-28T00:33:08;4.40;63.60
4584;DHT22;2304;47.606;12.186;2023-12-28T00:38:11;4.30;63.10
4584;DHT22;2304;47.606;12.186;2023-12-28T00:43:13;4.40;64.10
4584;DHT22;2304;47.606;12.186;2023-12-28T00:48:15;4.40;63.60
4584;DHT22;2304;47.606;12.186;2023-12-28T00:53:18;4.30;63.50
4584;DHT22;2304;47.606;12.186;2023-12-28T00:58:20;4.40;63.50
4584;DHT22;2304;47.606;12.186;2023-12-28T01:03:22;4.30;62.70
4584;DHT22;2304;47.606;12.186;2023-12-28T01:08:26;4.20;63.50
4584;DHT22;2304;47.606;12.186;2023-12-28T01:13:28;4.20;63.60
4584;DHT22;2304;47.606;12.186;2023-12-28T01:18:31;4.10;63.90
4584;DHT22;2304;47.606;12.186;2023-12-28T01:23:34;4.10;63.50
4584;DHT22;2304;47.606;12.186;2023-12-28T01:28:36;4.10;63.60
4584;DHT22;2304;47.606;12.186;2023-12-28T01:33:38;4.10;63.10
4584;DHT22;2304;47.606;12.186;2023-12-28T01:38:41;4.10;63.50
4584;DHT22;2304;47.606;12.186;2023-12-28T01:43:43;4.10;63.40
4584;DHT22;2304;47.606;12.186;2023-12-28T01:48:47;4.00;64.10
4584;DHT22;2304;47.606;12.186;2023-12-28T01:53:52;3.90;64.10
4584;DHT22;2304;47.606;12.186;2023-12-28T01:58:54;3.90;64.00
4584;DHT22;2304;47.606;12.186;2023-12-28T02:03:56;3.80;64.10
4584;DHT22;2304;47.606;12.186;2023-12-28T02:09:00;3.70;64.40
4584;DHT22;2304;47.606;12.186;2023-12-28T02:14:02;3.70;65.00
4584;DHT22;2304;47.606;12.186;2023-12-28T02:19:12;3.80;64.40
4584;DHT22;2304;47.606;12.186;2023-12-28T02:24:20;3.80;64.30
4584;DHT22;2304;47.606;12.186;2023-12-28T02:29:24;3.70;64.40
4584;DHT22;2304;47.606;12.186;2023-12-28T02:34:29;3.70;64.90
4584;DHT22;2304;47.606;12.186;2023-12-28T02:39:33;3.70;64.50
4584;DHT22;2304;47.606;12.186;2023-12-28T02:44:36;3.70;64.10
4584;DHT22;2304;47.606;12.186;2023-12-28T02:49:38;3.80;64.20
4584;DHT22;2304;47.606;12.186;2023-12-28T02:54:40;3.70;64.20
4584;DHT22;2304;47.606;12.186;2023-12-28T02:59:43;3.60;64.80
4584;DHT22;2304;47.606;12.186;2023-12-28T03:04:45;3.60;64.90
4584;DHT22;2304;47.606;12.186;2023-12-28T03:09:47;3.60;65.70
4584;DHT22;2304;47.606;12.186;2023-12-28T03:14:50;3.30;66.00
4584;DHT22;2304;47.606;12.186;2023-12-28T03:19:52;3.20;66.10
4584;DHT22;2304;47.606;12.186;2023-12-28T03:24:54;3.20;65.70
4584;DHT22;2304;47.606;12.186;2023-12-28T03:29:57;3.10;65.50
4584;DHT22;2304;47.606;12.186;2023-12-28T03:34:59;3.20;65.40
4584;DHT22;2304;47.606;12.186;2023-12-28T03:40:01;3.20;66.20
4584;DHT22;2304;47.606;12.186;2023-12-28T03:45:05;3.20;65.80
4584;DHT22;2304;47.606;12.186;2023-12-28T03:50:08;3.30;65.50
4584;DHT22;2304;47.606;12.186;2023-12-28T03:55:10;3.40;65.00
4584;DHT22;2304;47.606;12.186;2023-12-28T04:00:14;3.40;64.90
4584;DHT22;2304;47.606;12.186;2023-12-28T04:05:17;3.30;65.00
4584;DHT22;2304;47.606;12.186;2023-12-28T04:10:28;3.20;65.80
4584;DHT22;2304;47.606;12.186;2023-12-28T04:15:32;3.20;66.00
4584;DHT22;2304;47.606;12.186;2023-12-28T04:20:34;3.30;66.80
4584;DHT22;2304;47.606;12.186;2023-12-28T04:25:35;3.30;67.30
4584;DHT22;2304;47.606;12.186;2023-12-28T04:30:39;3.10;67.30
4584;DHT22;2304;47.606;12.186;2023-12-28T04:35:41;3.10;66.80
4584;DHT22;2304;47.606;12.186;2023-12-28T04:40:42;3.10;67.10
4584;DHT22;2304;47.606;12.186;2023-12-28T04:45:46;3.10;66.90
4584;DHT22;2304;47.606;12.186;2023-12-28T04:50:47;3.10;66.80
4584;DHT22;2304;47.606;12.186;2023-12-28T04:55:49;3.10;66.90
4584;DHT22;2304;47.606;12.186;2023-12-28T05:00:53;3.20;66.30
4584;DHT22;2304;47.606;12.186;2023-12-28T05:05:54;3.10;66.80
4584;DHT22;2304;47.606;12.186;2023-12-28T05:10:56;3.00;66.80
4584;DHT22;2304;47.606;12.186;2023-12-28T05:16:01;2.90;66.70
4584;DHT22;2304;47.606;12.186;2023-12-28T05:21:03;3.00;66.90
4584;DHT22;2304;47.606;12.186;2023-12-28T05:26:05;3.00;67.20
4584;DHT22;2304;47.606;12.186;2023-12-28T05:31:09;3.00;67.10
4584;DHT22;2304;47.606;12.186;2023-12-28T05:36:10;3.20;67.00
4584;DHT22;2304;47.606;12.186;2023-12-28T05:41:12;2.80;67.10
4584;DHT22;2304;47.606;12.186;2023-12-28T05:46:16;2.70;67.90
4584;DHT22;2304;47.606;12.186;2023-12-28T05:51:18;2.60;68.70
4584;DHT22;2304;47.606;12.186;2023-12-28T05:56:20;2.60;69.20
4584;DHT22;2304;47.606;12.186;2023-12-28T06:01:23;2.60;69.30
4584;DHT22;2304;47.606;12.186;2023-12-28T06:06:25;2.60;69.30
4584;DHT22;2304;47.606;12.186;2023-12-28T06:11:26;2.50;69.10
4584;DHT22;2304;47.606;12.186;2023-12-28T06:16:30;2.40;69.70
4584;DHT22;2304;47.606;12.186;2023-12-28T06:21:33;2.30;69.30
4584;DHT22;2304;47.606;12.186;2023-12-28T06:26:39;2.40;69.50
4584;DHT22;2304;47.606;12.186;2023-12-28T06:31:42;2.50;68.90
4584;DHT22;2304;47.606;12.186;2023-12-28T06:36:44;2.60;68.70
4584;DHT22;2304;47.606;12.186;2023-12-28T06:41:47;2.40;69.20
4584;DHT22;2304;47.606;12.186;2023-12-28T06:46:50;2.50;68.80
4584;DHT22;2304;47.606;12.186;2023-12-28T06:51:52;2.50;68.20
4584;DHT22;2304;47.606;12.186;2023-12-28T06:56:54;2.60;67.80
4584;DHT22;2304;47.606;12.186;2023-12-28T07:01:57;2.60;67.90
4584;DHT22;2304;47.606;12.186;2023-12-28T07:06:59;2.60;67.80
4584;DHT22;2304;47.606;12.186;2023-12-28T07:12:01;2.60;67.80
4584;DHT22;2304;47.606;12.186;2023-12-28T07:17:04;2.50;67.80
4584;DHT22;2304;47.606;12.186;2023-12-28T07:22:06;2.50;67.60
4584;DHT22;2304;47.606;12.186;2023-12-28T07:27:08;2.50;67.70
4584;DHT22;2304;47.606;12.186;2023-12-28T07:32:11;2.60;68.10
4584;DHT22;2304;47.606;12.186;2023-12-28T07:37:14;2.60;67.40
4584;DHT22;2304;47.606;12.186;2023-12-28T07:42:16;2.60;67.40
4584;DHT22;2304;47.606;12.186;2023-12-28T07:47:19;2.60;67.50
4584;DHT22;2304;47.606;12.186;2023-12-28T07:52:21;2.70;67.20
4584;DHT22;2304;47.606;12.186;2023-12-28T07:57:23;2.60;68.20
4584;DHT22;2304;47.606;12.186;2023-12-28T08:02:27;2.70;68.30
4584;DHT22;2304;47.606;12.186;2023-12-28T08:07:29;2.60;68.60
4584;DHT22;2304;47.606;12.186;2023-12-28T08:12:30;2.70;68.40
4584;DHT22;2304;47.606;12.186;2023-12-28T08:17:34;3.20;77.80
4584;DHT22;2304;47.606;12.186;2023-12-28T08:22:35;3.70;73.60
4584;DHT22;2304;47.606;12.186;2023-12-28T08:27:37;3.40;67.40
4584;DHT22;2304;47.606;12.186;2023-12-28T08:32:41;2.90;67.10
4584;DHT22;2304;47.606;12.186;2023-12-28T08:37:43;2.70;67.80
4584;DHT22;2304;47.606;12.186;2023-12-28T08:42:45;2.90;69.70
4584;DHT22;2304;47.606;12.186;2023-12-28T08:47:48;3.40;76.20
4584;DHT22;2304;47.606;12.186;2023-12-28T08:52:50;4.30;78.30
4584;DHT22;2304;47.606;12.186;2023-12-28T08:57:51;4.90;74.80
4584;DHT22;2304;47.606;12.186;2023-12-28T09:02:55;5.40;65.40
4584;DHT22;2304;47.606;12.186;2023-12-28T09:07:56;6.10;63.90
4584;DHT22;2304;47.606;12.186;2023-12-28T09:12:58;7.10;63.10
4584;DHT22;2304;47.606;12.186;2023-12-28T09:18:01;7.30;59.00
4584;DHT22;2304;47.606;12.186;2023-12-28T09:23:03;6.80;57.20
4584;DHT22;2304;47.606;12.186;2023-12-28T09:28:06;6.60;57.20
4584;DHT22;2304;47.606;12.186;2023-12-28T09:33:09;6.60;59.00
4584;DHT22;2304;47.606;12.186;2023-12-28T09:38:11;7.10;61.00
4584;DHT22;2304;47.606;12.186;2023-12-28T09:43:17;7.50;59.50
4584;DHT22;2304;47.606;12.186;2023-12-28T09:48:22;7.70;58.20
4584;DHT22;2304;47.606;12.186;2023-12-28T09:53:24;8.20;57.30
4584;DHT22;2304;47.606;12.186;2023-12-28T09:58:26;8.20;54.90
4584;DHT22;2304;47.606;12.186;2023-12-28T10:03:31;8.10;55.40
4584;DHT22;2304;47.606;12.186;2023-12-28T10:08:33;8.20;55.10
4584;DHT22;2304;47.606;12.186;2023-12-28T10:13:36;8.10;54.30
4584;DHT22;2304;47.606;12.186;2023-12-28T10:18:42;7.80;52.40
4584;DHT22;2304;47.606;12.186;2023-12-28T10:23:44;7.60;53.30
4584;DHT22;2304;47.606;12.186;2023-12-28T10:28:45;7.70;55.40
4584;DHT22;2304;47.606;12.186;2023-12-28T10:33:49;7.90;55.10
4584;DHT22;2304;47.606;12.186;2023-12-28T10:38:51;8.10;55.20
4584;DHT22;2304;47.606;12.186;2023-12-28T10:44:02;8.30;54.90
4584;DHT22;2304;47.606;12.186;2023-12-28T10:49:10;8.30;51.90
4584;DHT22;2304;47.606;12.186;2023-12-28T10:54:21;8.40;52.40
4584;DHT22;2304;47.606;12.186;2023-12-28T10:59:35;8.90;53.80
4584;DHT22;2304;47.606;12.186;2023-12-28T11:04:48;8.60;52.00
4584;DHT22;2304;47.606;12.186;2023-12-28T11:09:50;8.30;52.50
4584;DHT22;2304;47.606;12.186;2023-12-28T11:14:54;8.30;52.60
4584;DHT22;2304;47.606;12.186;2023-12-28T11:19:58;8.40;51.50
4584;DHT22;2304;47.606;12.186;2023-12-28T11:25:01;8.50;54.30
4584;DHT22;2304;47.606;12.186;2023-12-28T11:30:04;8.70;53.50
4584;DHT22;2304;47.606;12.186;2023-12-28T11:35:08;9.10;52.70
4584;DHT22;2304;47.606;12.186;2023-12-28T11:40:13;9.20;51.40
4584;DHT22;2304;47.606;12.186;2023-12-28T11:45:17;9.30;53.40
4584;DHT22;2304;47.606;12.186;2023-12-28T11:50:20;9.60;54.20
4584;DHT22;2304;47.606;12.186;2023-12-28T11:55:22;9.60;51.70
4584;DHT22;2304;47.606;12.186;2023-12-28T12:00:24;9.70;53.00
4584;DHT22;2304;47.606;12.186;2023-12-28T12:05:27;9.90;52.30
4584;DHT22;2304;47.606;12.186;2023-12-28T12:10:29;10.00;50.40
4584;DHT22;2304;47.606;12.186;2023-12-28T12:15:32;10.10;51.10
4584;DHT22;2304;47.606;12.186;2023-12-28T12:20:36;10.50;53.50
4584;DHT22;2304;47.606;12.186;2023-12-28T12:25:41;10.60;52.10
4584;DHT22;2304;47.606;12.186;2023-12-28T12:30:50;10.70;49.50
4584;DHT22;2304;47.606;12.186;2023-12-28T12:35:54;10.60;49.20
4584;DHT22;2304;47.606;12.186;2023-12-28T12:40:56;10.20;50.00
4584;DHT22;2304;47.606;12.186;2023-12-28T12:45:58;10.30;50.90
4584;DHT22;2304;47.606;12.186;2023-12-28T12:51:03;10.30;52.20
4584;DHT22;2304;47.606;12.186;2023-12-28T12:56:06;10.10;50.90
4584;DHT22;2304;47.606;12.186;2023-12-28T13:01:10;9.90;50.20
4584;DHT22;2304;47.606;12.186;2023-12-28T13:06:13;9.90;52.40
4584;DHT22;2304;47.606;12.186;2023-12-28T13:11:15;10.10;51.30
4584;DHT22;2304;47.606;12.186;2023-12-28T13:16:17;10.00;51.90
4584;DHT22;2304;47.606;12.186;2023-12-28T13:21:20;10.00;52.20
4584;DHT22;2304;47.606;12.186;2023-12-28T13:26:22;10.20;53.90
4584;DHT22;2304;47.606;12.186;2023-12-28T13:31:24;10.20;49.40
4584;DHT22;2304;47.606;12.186;2023-12-28T13:36:28;10.10;50.80
4584;DHT22;2304;47.606;12.186;2023-12-28T13:41:30;10.20;51.00
4584;DHT22;2304;47.606;12.186;2023-12-28T13:46:32;10.40;51.60
4584;DHT22;2304;47.606;12.186;2023-12-28T13:51:36;10.30;50.80
4584;DHT22;2304;47.606;12.186;2023-12-28T13:56:38;10.30;51.40
4584;DHT22;2304;47.606;12.186;2023-12-28T14:01:40;10.10;50.50
4584;DHT22;2304;47.606;12.186;2023-12-28T14:06:43;9.80;49.20
4584;DHT22;2304;47.606;12.186;2023-12-28T14:11:45;9.60;50.10
4584;DHT22;2304;47.606;12.186;2023-12-28T14:16:47;9.50;50.70
4584;DHT22;2304;47.606;12.186;2023-12-28T14:21:51;9.60;51.80
4584;DHT22;2304;47.606;12.186;2023-12-28T14:26:53;9.60;52.70
4584;DHT22;2304;47.606;12.186;2023-12-28T14:31:56;9.50;50.70
4584;DHT22;2304;47.606;12.186;2023-12-28T14:36:59;9.50;51.90
4584;DHT22;2304;47.606;12.186;2023-12-28T14:42:01;9.50;51.70
4584;DHT22;2304;47.606;12.186;2023-12-28T14:47:04;9.40;51.80
4584;DHT22;2304;47.606;12.186;2023-12-28T14:52:08;9.30;51.40
4584;DHT22;2304;47.606;12.186;2023-12-28T14:57:09;9.30;51.00
4584;DHT22;2304;47.606;12.186;2023-12-28T15:02:12;8.90;52.10
4584;DHT22;2304;47.606;12.186;2023-12-28T15:07:15;9.10;53.90
4584;DHT22;2304;47.606;12.186;2023-12-28T15:12:18;9.30;55.20
4584;DHT22;2304;47.606;12.186;2023-12-28T15:17:20;9.40;55.80
4584;DHT22;2304;47.606;12.186;2023-12-28T15:22:25;9.30;55.70
4584;DHT22;2304;47.606;12.186;2023-12-28T15:27:27;9.40;56.90
4584;DHT22;2304;47.606;12.186;2023-12-28T15:32:28;9.40;54.50
4584;DHT22;2304;47.606;12.186;2023-12-28T15:37:32;9.30;56.70
4584;DHT22;2304;47.606;12.186;2023-12-28T15:42:34;9.10;55.30
4584;DHT22;2304;47.606;12.186;2023-12-28T15:47:36;9.20;56.60
4584;DHT22;2304;47.606;12.186;2023-12-28T15:52:39;9.00;54.30
4584;DHT22;2304;47.606;12.186;2023-12-28T15:57:41;8.90;54.50
4584;DHT22;2304;47.606;12.186;2023-12-28T16:02:43;8.80;56.50
4584;DHT22;2304;47.606;12.186;2023-12-28T16:07:46;9.00;56.90
4584;DHT22;2304;47.606;12.186;2023-12-28T16:12:48;8.80;55.10
4584;DHT22;2304;47.606;12.186;2023-12-28T16:17:50;8.70;55.50
4584;DHT22;2304;47.606;12.186;2023-12-28T16:22:59;8.50;56.80
4584;DHT22;2304;47.606;12.186;2023-12-28T16:28:01;8.40;56.20
4584;DHT22;2304;47.606;12.186;2023-12-28T16:33:04;8.40;56.60
4584;DHT22;2304;47.606;12.186;2023-12-28T16:38:07;8.30;56.10
4584;DHT22;2304;47.606;12.186;2023-12-28T16:43:09;8.40;57.50
4584;DHT22;2304;47.606;12.186;2023-12-28T16:48:11;8.50;56.90
4584;DHT22;2304;47.606;12.186;2023-12-28T16:53:14;8.20;56.20
4584;DHT22;2304;47.606;12.186;2023-12-28T16:58:16;8.10;56.90
4584;DHT22;2304;47.606;12.186;2023-12-28T17:03:17;8.30;57.80
4584;DHT22;2304;47.606;12.186;2023-12-28T17:08:21;8.40;58.10
4584;DHT22;2304;47.606;12.186;2023-12-28T17:13:23;8.30;56.50
4584;DHT22;2304;47.606;12.186;2023-12-28T17:18:25;8.30;57.50
4584;DHT22;2304;47.606;12.186;2023-12-28T17:23:34;8.40;57.80
4584;DHT22;2304;47.606;12.186;2023-12-28T17:28:46;8.60;57.90
4584;DHT22;2304;47.606;12.186;2023-12-28T17:33:49;8.50;57.80
4584;DHT22;2304;47.606;12.186;2023-12-28T17:38:53;8.20;57.60
4584;DHT22;2304;47.606;12.186;2023-12-28T17:43:59;8.20;58.30
4584;DHT22;2304;47.606;12.186;2023-12-28T17:49:02;8.10;58.70
4584;DHT22;2304;47.606;12.186;2023-12-28T17:54:09;8.20;59.10
4584;DHT22;2304;47.606;12.186;2023-12-28T17:59:11;8.20;58.40
4584;DHT22;2304;47.606;12.186;2023-12-28T18:04:13;8.30;59.00
4584;DHT22;2304;47.606;12.186;2023-12-28T18:09:16;8.30;59.00
4584;DHT22;2304;47.606;12.186;2023-12-28T18:14:18;8.40;58.60
4584;DHT22;2304;47.606;12.186;2023-12-28T18:19:22;8.30;58.20
4584;DHT22;2304;47.606;12.186;2023-12-28T18:24:25;8.40;59.40
4584;DHT22;2304;47.606;12.186;2023-12-28T18:29:27;8.30;58.90
4584;DHT22;2304;47.606;12.186;2023-12-28T18:34:29;8.30;59.50
4584;DHT22;2304;47.606;12.186;2023-12-28T18:39:32;8.30;59.20
4584;DHT22;2304;47.606;12.186;2023-12-28T18:44:37;8.00;58.20
4584;DHT22;2304;47.606;12.186;2023-12-28T18:49:39;8.00;58.40
4584;DHT22;2304;47.606;12.186;2023-12-28T18:54:42;7.50;59.60
4584;DHT22;2304;47.606;12.186;2023-12-28T18:59:44;7.10;59.50
4584;DHT22;2304;47.606;12.186;2023-12-28T19:04:46;6.90;60.10
4584;DHT22;2304;47.606;12.186;2023-12-28T19:09:51;6.80;60.20
4584;DHT22;2304;47.606;12.186;2023-12-28T19:14:53;6.50;61.20
4584;DHT22;2304;47.606;12.186;2023-12-28T19:19:56;6.30;61.50
4584;DHT22;2304;47.606;12.186;2023-12-28T19:24:59;6.60;61.90
4584;DHT22;2304;47.606;12.186;2023-12-28T19:30:01;6.20;62.60
4584;DHT22;2304;47.606;12.186;2023-12-28T19:35:04;6.30;63.20
4584;DHT22;2304;47.606;12.186;2023-12-28T19:40:08;6.20;63.00
4584;DHT22;2304;47.606;12.186;2023-12-28T19:45:10;6.30;62.30
4584;DHT22;2304;47.606;12.186;2023-12-28T19:50:12;6.40;61.90
4584;DHT22;2304;47.606;12.186;2023-12-28T19:55:15;6.50;62.30
4584;DHT22;2304;47.606;12.186;2023-12-28T20:00:17;6.50;62.60
4584;DHT22;2304;47.606;12.186;2023-12-28T20:05:20;6.30;62.80
4584;DHT22;2304;47.606;12.186;2023-12-28T20:10:23;6.30;63.70
4584;DHT22;2304;47.606;12.186;2023-12-28T20:15:25;6.10;63.20
4584;DHT22;2304;47.606;12.186;2023-12-28T20:20:27;6.10;63.70
4584;DHT22;2304;47.606;12.186;2023-12-28T20:25:31;6.10;63.40
4584;DHT22;2304;47.606;12.186;2023-12-28T20:30:34;6.10;63.20
4584;DHT22;2304;47.606;12.186;2023-12-28T20:35:36;6.20;62.70
4584;DHT22;2304;47.606;12.186;2023-12-28T20:40:39;6.20;62.50
4584;DHT22;2304;47.606;12.186;2023-12-28T20:45:41;6.30;62.00
4584;DHT22;2304;47.606;12.186;2023-12-28T20:50:43;6.40;62.20
4584;DHT22;2304;47.606;12.186;2023-12-28T20:55:46;6.50;61.70
4584;DHT22;2304;47.606;12.186;2023-12-28T21:00:48;6.50;61.60
4584;DHT22;2304;47.606;12.186;2023-12-28T21:05:50;6.60;61.90
4584;DHT22;2304;47.606;12.186;2023-12-28T21:10:55;6.50;61.90
4584;DHT22;2304;47.606;12.186;2023-12-28T21:15:58;6.40;61.90
4584;DHT22;2304;47.606;12.186;2023-12-28T21:21:00;6.40;62.20
4584;DHT22;2304;47.606;12.186;2023-12-28T21:26:03;6.40;62.20
4584;DHT22;2304;47.606;12.186;2023-12-28T21:31:05;6.30;61.90
4584;DHT22;2304;47.606;12.186;2023-12-28T21:36:07;6.40;62.20
4584;DHT22;2304;47.606;12.186;2023-12-28T21:41:11;6.30;62.90
4584;DHT22;2304;47.606;12.186;2023-12-28T21:46:13;6.50;62.30
4584;DHT22;2304;47.606;12.186;2023-12-28T21:51:15;6.20;62.30
4584;DHT22;2304;47.606;12.186;2023-12-28T21:56:19;6.30;62.60
4584;DHT22;2304;47.606;12.186;2023-12-28T22:01:21;6.40;61.90
4584;DHT22;2304;47.606;12.186;2023-12-28T22:06:23;6.40;62.30
4584;DHT22;2304;47.606;12.186;2023-12-28T22:11:26;6.40;62.60
4584;DHT22;2304;47.606;12.186;2023-12-28T22:16:28;6.50;62.80
4584;DHT22;2304;47.606;12.186;2023-12-28T22:21:29;6.70;62.80
4584;DHT22;2304;47.606;12.186;2023-12-28T22:26:33;6.60;63.10
4584;DHT22;2304;47.606;12.186;2023-12-28T22:31:37;6.60;62.30
4584;DHT22;2304;47.606;12.186;2023-12-28T22:36:39;6.70;62.30
4584;DHT22;2304;47.606;12.186;2023-12-28T22:41:42;6.60;62.30
4584;DHT22;2304;47.606;12.186;2023-12-28T22:46:44;6.60;62.10
4584;DHT22;2304;47.606;12.186;2023-12-28T22:51:46;6.60;62.30
4584;DHT22;2304;47.606;12.186;2023-12-28T22:56:50;6.80;62.60
4584;DHT22;2304;47.606;12.186;2023-12-28T23:01:52;6.70;62.40
4584;DHT22;2304;47.606;12.186;2023-12-28T23:06:54;6.90;62.60
4584;DHT22;2304;47.606;12.186;2023-12-28T23:11:57;6.80;61.90
4584;DHT22;2304;47.606;12.186;2023-12-28T23:16:59;6.80;61.90
4584;DHT22;2304;47.606;12.186;2023-12-28T23:22:01;6.70;62.40
4584;DHT22;2304;47.606;12.186;2023-12-28T23:27:04;6.60;62.30
4584;DHT22;2304;47.606;12.186;2023-12-28T23:32:06;6.60;62.70
4584;DHT22;2304;47.606;12.186;2023-12-28T23:37:08;6.50;62.80
4584;DHT22;2304;47.606;12.186;2023-12-28T23:42:11;6.30;63.10
4584;DHT22;2304;47.606;12.186;2023-12-28T23:47:13;6.30;63.00
4584;DHT22;2304;47.606;12.186;2023-12-28T23:52:15;6.40;63.40
4584;DHT22;2304;47.606;12.186;2023-12-28T23:57:18;6.40;63.20
